createdAt,value
2023-05-05T00:00:23.508Z,15.12
2023-05-05T00:01:23.443Z,15.11
2023-05-05T00:02:23.518Z,15.10
2023-05-05T00:03:23.551Z,15.04
2023-05-05T00:04:23.469Z,15.05
2023-05-05T00:05:23.408Z,15.02
2023-05-05T00:06:23.394Z,15.00
2023-05-05T00:07:23.366Z,14.97
2023-05-05T00:08:23.410Z,14.97
2023-05-05T00:09:23.400Z,14.93
2023-05-05T00:10:23.377Z,14.93
2023-05-05T00:11:23.347Z,14.92
2023-05-05T00:12:23.330Z,14.92
2023-05-05T00:13:23.355Z,14.93
2023-05-05T00:14:23.346Z,14.92
2023-05-05T00:15:23.295Z,14.87
2023-05-05T00:16:23.379Z,14.87
2023-05-05T00:17:23.294Z,14.86
2023-05-05T00:18:23.334Z,14.82
2023-05-05T00:19:23.279Z,14.82
2023-05-05T00:20:23.241Z,14.85
2023-05-05T00:21:23.268Z,14.82
2023-05-05T00:22:23.214Z,14.87
2023-05-05T00:23:23.274Z,14.85
2023-05-05T00:24:23.198Z,14.85
2023-05-05T00:25:23.209Z,14.79
2023-05-05T00:26:23.164Z,14.82
2023-05-05T00:27:23.135Z,14.81
2023-05-05T00:28:23.227Z,14.81
2023-05-05T00:29:23.166Z,14.82
2023-05-05T00:30:23.147Z,14.79
2023-05-05T00:31:23.175Z,14.81
2023-05-05T00:32:23.205Z,14.81
2023-05-05T00:33:23.106Z,14.79
2023-05-05T00:34:23.111Z,14.74
2023-05-05T00:35:23.105Z,14.77
2023-05-05T00:36:23.131Z,14.77
2023-05-05T00:37:23.072Z,14.77
2023-05-05T00:38:23.060Z,14.78
2023-05-05T00:39:23.028Z,14.73
2023-05-05T00:40:23.094Z,14.71
2023-05-05T00:41:22.977Z,14.73
2023-05-05T00:42:23.030Z,14.78
2023-05-05T00:43:22.997Z,14.73
2023-05-05T00:44:23.019Z,14.74
2023-05-05T00:45:23.001Z,14.73
2023-05-05T00:46:23.008Z,14.71
2023-05-05T00:47:22.960Z,14.71
2023-05-05T00:48:22.963Z,14.71
2023-05-05T00:49:22.972Z,14.67
2023-05-05T00:50:22.898Z,14.63
2023-05-05T00:51:22.898Z,14.62
2023-05-05T00:52:22.971Z,14.62
2023-05-05T00:53:22.916Z,14.61
2023-05-05T00:54:23.233Z,14.61
2023-05-05T00:55:22.874Z,14.58
2023-05-05T00:56:22.875Z,14.58
2023-05-05T00:57:22.858Z,14.52
2023-05-05T00:58:22.897Z,14.55
2023-05-05T00:59:22.816Z,14.53
2023-05-05T01:00:22.818Z,14.55
2023-05-05T01:01:22.876Z,14.51
2023-05-05T01:02:22.882Z,14.53
2023-05-05T01:03:22.839Z,14.48
2023-05-05T01:04:22.745Z,14.45
2023-05-05T01:05:22.733Z,14.45
2023-05-05T01:06:22.755Z,14.41
2023-05-05T01:07:22.725Z,14.38
2023-05-05T01:08:22.767Z,14.38
2023-05-05T01:09:22.799Z,14.37
2023-05-05T01:10:22.994Z,14.36
2023-05-05T01:11:22.680Z,14.36
2023-05-05T01:12:22.669Z,14.38
2023-05-05T01:13:22.719Z,14.36
2023-05-05T01:14:22.674Z,14.33
2023-05-05T01:15:22.648Z,14.28
2023-05-05T01:16:22.690Z,14.31
2023-05-05T01:17:22.653Z,14.30
2023-05-05T01:18:22.674Z,14.28
2023-05-05T01:19:22.608Z,14.26
2023-05-05T01:20:22.614Z,14.26
2023-05-05T01:21:22.633Z,14.25
2023-05-05T01:22:22.600Z,14.26
2023-05-05T01:23:22.560Z,14.26
2023-05-05T01:24:22.565Z,14.25
2023-05-05T01:25:22.523Z,14.28
2023-05-05T01:26:22.499Z,14.28
2023-05-05T01:27:22.479Z,14.28
2023-05-05T01:28:22.515Z,14.28
2023-05-05T01:29:22.490Z,14.26
2023-05-05T01:30:22.485Z,14.28
2023-05-05T01:31:22.495Z,14.26
2023-05-05T01:32:22.511Z,14.31
2023-05-05T01:33:22.433Z,14.31
2023-05-05T01:34:22.422Z,14.36
2023-05-05T01:35:22.408Z,14.31
2023-05-05T01:36:22.481Z,14.28
2023-05-05T01:37:22.401Z,14.23
2023-05-05T01:38:22.392Z,14.25
2023-05-05T01:39:22.391Z,14.26
2023-05-05T01:40:22.369Z,14.26
2023-05-05T01:41:22.343Z,14.31
2023-05-05T01:42:22.395Z,14.31
2023-05-05T01:43:22.406Z,14.33
2023-05-05T01:44:22.529Z,14.31
2023-05-05T01:45:22.356Z,14.26
2023-05-05T01:46:22.466Z,14.31
2023-05-05T01:47:22.303Z,14.34
2023-05-05T01:48:22.317Z,14.36
2023-05-05T01:49:22.234Z,14.36
2023-05-05T01:50:22.257Z,14.34
2023-05-05T01:51:22.240Z,14.36
2023-05-05T01:52:22.217Z,14.40
2023-05-05T01:53:22.218Z,14.37
2023-05-05T01:54:22.248Z,14.37
2023-05-05T01:55:22.215Z,14.37
2023-05-05T01:56:22.187Z,14.31
2023-05-05T01:57:22.211Z,14.33
2023-05-05T01:58:22.186Z,14.31
2023-05-05T01:59:22.144Z,14.26
2023-05-05T02:00:22.176Z,14.34
2023-05-05T02:01:22.252Z,14.34
2023-05-05T02:02:22.189Z,14.30
2023-05-05T02:03:22.186Z,14.33
2023-05-05T02:04:22.227Z,14.30
2023-05-05T02:05:22.095Z,14.23
2023-05-05T02:06:22.136Z,14.20
2023-05-05T02:07:22.078Z,14.20
2023-05-05T02:08:22.088Z,14.20
2023-05-05T02:09:22.154Z,14.18
2023-05-05T02:10:22.058Z,14.16
2023-05-05T02:11:22.018Z,14.12
2023-05-05T02:12:22.020Z,14.11
2023-05-05T02:13:22.134Z,14.13
2023-05-05T02:14:22.018Z,14.08
2023-05-05T02:15:22.011Z,14.05
2023-05-05T02:16:22.105Z,14.04
2023-05-05T02:17:22.076Z,14.04
2023-05-05T02:18:22.012Z,14.01
2023-05-05T02:19:21.949Z,13.98
2023-05-05T02:20:21.978Z,13.95
2023-05-05T02:21:21.920Z,13.95
2023-05-05T02:22:21.933Z,13.95
2023-05-05T02:23:21.946Z,13.97
2023-05-05T02:24:21.926Z,13.97
2023-05-05T02:25:21.908Z,13.95
2023-05-05T02:26:21.940Z,13.98
2023-05-05T02:27:21.985Z,13.97
2023-05-05T02:28:21.927Z,14.01
2023-05-05T02:29:21.879Z,13.98
2023-05-05T02:30:21.892Z,14.00
2023-05-05T02:31:21.917Z,14.03
2023-05-05T02:32:21.929Z,14.04
2023-05-05T02:33:21.853Z,14.05
2023-05-05T02:34:21.842Z,14.07
2023-05-05T02:35:21.862Z,14.05
2023-05-05T02:36:21.800Z,14.11
2023-05-05T02:37:21.790Z,14.15
2023-05-05T02:38:21.763Z,14.12
2023-05-05T02:39:21.819Z,14.15
2023-05-05T02:40:21.748Z,14.18
2023-05-05T02:41:21.696Z,14.12
2023-05-05T02:42:21.743Z,14.08
2023-05-05T02:43:21.818Z,14.15
2023-05-05T02:44:21.713Z,14.16
2023-05-05T02:45:21.653Z,14.13
2023-05-05T02:46:21.724Z,14.13
2023-05-05T02:47:21.709Z,14.11
2023-05-05T02:48:21.639Z,14.11
2023-05-05T02:49:21.629Z,14.13
2023-05-05T02:50:21.648Z,14.18
2023-05-05T02:51:21.652Z,14.15
2023-05-05T02:52:21.588Z,14.16
2023-05-05T02:53:21.690Z,14.23
2023-05-05T02:54:21.580Z,14.26
2023-05-05T02:55:21.609Z,14.23
2023-05-05T02:56:21.583Z,14.19
2023-05-05T02:57:21.556Z,14.19
2023-05-05T02:58:21.582Z,14.22
2023-05-05T02:59:21.521Z,14.20
2023-05-05T03:00:21.573Z,14.15
2023-05-05T03:01:21.589Z,14.13
2023-05-05T03:02:21.545Z,14.16
2023-05-05T03:03:21.833Z,14.18
2023-05-05T03:04:21.462Z,14.18
2023-05-05T03:05:21.488Z,14.23
2023-05-05T03:06:21.502Z,14.26
2023-05-05T03:07:21.452Z,14.30
2023-05-05T03:08:21.440Z,14.33
2023-05-05T03:09:21.445Z,14.33
2023-05-05T03:10:21.395Z,14.33
2023-05-05T03:11:21.380Z,14.31
2023-05-05T03:12:21.349Z,14.31
2023-05-05T03:13:21.463Z,14.30
2023-05-05T03:14:21.358Z,14.37
2023-05-05T03:15:21.362Z,14.37
2023-05-05T03:16:21.366Z,14.43
2023-05-05T03:17:21.438Z,14.45
2023-05-05T03:18:21.310Z,14.41
2023-05-05T03:19:21.334Z,14.37
2023-05-05T03:20:21.285Z,14.37
2023-05-05T03:21:21.287Z,14.36
2023-05-05T03:22:21.344Z,14.37
2023-05-05T03:23:21.306Z,14.34
2023-05-05T03:24:21.295Z,14.33
2023-05-05T03:25:21.241Z,14.36
2023-05-05T03:26:21.346Z,14.31
2023-05-05T03:27:21.222Z,14.37
2023-05-05T03:28:21.252Z,14.37
2023-05-05T03:29:21.200Z,14.36
2023-05-05T03:30:21.150Z,14.38
2023-05-05T03:31:21.217Z,14.37
2023-05-05T03:32:21.160Z,14.36
2023-05-05T03:33:21.169Z,14.33
2023-05-05T03:34:21.133Z,14.33
2023-05-05T03:35:21.137Z,14.33
2023-05-05T03:36:21.106Z,14.36
2023-05-05T03:37:21.073Z,14.34
2023-05-05T03:38:21.059Z,14.36
2023-05-05T03:39:21.072Z,14.40
2023-05-05T03:40:27.166Z,14.40
2023-05-05T03:41:22.037Z,14.37
2023-05-05T03:42:21.079Z,14.37
2023-05-05T03:43:21.083Z,14.40
2023-05-05T03:44:21.012Z,14.38
2023-05-05T03:45:21.028Z,14.37
2023-05-05T03:46:21.098Z,14.37
2023-05-05T03:47:20.981Z,14.38
2023-05-05T03:48:20.985Z,14.48
2023-05-05T03:49:20.979Z,14.43
2023-05-05T03:50:20.955Z,14.43
2023-05-05T03:51:20.902Z,14.41
2023-05-05T03:52:20.938Z,14.40
2023-05-05T03:53:20.911Z,14.41
2023-05-05T03:54:20.895Z,14.41
2023-05-05T03:55:20.879Z,14.43
2023-05-05T03:56:20.842Z,14.41
2023-05-05T03:57:20.889Z,14.45
2023-05-05T03:58:20.876Z,14.48
2023-05-05T03:59:20.858Z,14.49
2023-05-05T04:00:20.843Z,14.43
2023-05-05T04:01:20.816Z,14.44
2023-05-05T04:02:20.973Z,14.44
2023-05-05T04:03:20.936Z,14.44
2023-05-05T04:04:20.825Z,14.48
2023-05-05T04:05:20.738Z,14.48
2023-05-05T04:06:20.740Z,14.52
2023-05-05T04:07:20.808Z,14.53
2023-05-05T04:08:20.803Z,14.52
2023-05-05T04:09:20.742Z,14.53
2023-05-05T04:10:20.750Z,14.55
2023-05-05T04:11:20.688Z,14.52
2023-05-05T04:12:20.706Z,14.52
2023-05-05T04:13:20.649Z,14.48
2023-05-05T04:14:20.675Z,14.52
2023-05-05T04:15:20.670Z,14.49
2023-05-05T04:16:20.741Z,14.51
2023-05-05T04:17:20.651Z,14.51
2023-05-05T04:18:20.617Z,14.52
2023-05-05T04:19:20.625Z,14.53
2023-05-05T04:20:20.609Z,14.53
2023-05-05T04:21:20.604Z,14.51
2023-05-05T04:22:20.626Z,14.56
2023-05-05T04:23:20.588Z,14.55
2023-05-05T04:24:20.578Z,14.53
2023-05-05T04:25:20.605Z,14.51
2023-05-05T04:26:20.557Z,14.49
2023-05-05T04:27:20.563Z,14.45
2023-05-05T04:28:21.836Z,14.45
2023-05-05T04:29:20.508Z,14.41
2023-05-05T04:30:20.518Z,14.41
2023-05-05T04:31:20.527Z,14.41
2023-05-05T04:32:20.492Z,14.44
2023-05-05T04:33:20.509Z,14.45
2023-05-05T04:34:20.460Z,14.44
2023-05-05T04:35:20.417Z,14.45
2023-05-05T04:36:20.478Z,14.53
2023-05-05T04:37:20.418Z,14.52
2023-05-05T04:38:20.480Z,14.59
2023-05-05T04:39:20.432Z,14.58
2023-05-05T04:40:20.382Z,14.62
2023-05-05T04:41:20.387Z,14.66
2023-05-05T04:42:20.379Z,14.70
2023-05-05T04:43:20.403Z,14.70
2023-05-05T04:44:20.415Z,14.71
2023-05-05T04:45:20.384Z,14.71
2023-05-05T04:46:20.388Z,14.73
2023-05-05T04:47:20.560Z,14.77
2023-05-05T04:48:20.319Z,14.82
2023-05-05T04:49:20.270Z,14.86
2023-05-05T04:50:20.243Z,14.92
2023-05-05T04:51:20.281Z,14.94
2023-05-05T04:52:20.312Z,14.97
2023-05-05T04:53:20.262Z,15.02
2023-05-05T04:54:20.283Z,15.07
2023-05-05T04:55:20.313Z,15.08
2023-05-05T04:56:20.201Z,15.14
2023-05-05T04:57:20.228Z,15.17
2023-05-05T04:58:20.203Z,15.17
2023-05-05T04:59:20.640Z,15.19
2023-05-05T05:00:20.160Z,15.22
2023-05-05T05:01:20.165Z,15.26
2023-05-05T05:02:20.158Z,15.30
2023-05-05T05:03:20.254Z,15.35
2023-05-05T05:04:20.092Z,15.41
2023-05-05T05:05:20.088Z,15.47
2023-05-05T05:06:20.101Z,15.54
2023-05-05T05:07:20.070Z,15.62
2023-05-05T05:08:20.128Z,15.67
2023-05-05T05:09:20.101Z,15.69
2023-05-05T05:10:20.078Z,15.76
2023-05-05T05:11:20.054Z,15.75
2023-05-05T05:12:20.032Z,15.78
2023-05-05T05:13:20.144Z,15.81
2023-05-05T05:14:20.018Z,15.88
2023-05-05T05:15:20.010Z,15.88
2023-05-05T05:16:20.059Z,15.88
2023-05-05T05:17:20.082Z,15.87
2023-05-05T05:18:19.989Z,15.85
2023-05-05T05:19:20.097Z,15.84
2023-05-05T05:20:19.984Z,15.87
2023-05-05T05:21:19.944Z,15.84
2023-05-05T05:22:19.930Z,15.78
2023-05-05T05:23:19.965Z,15.84
2023-05-05T05:24:19.925Z,15.84
2023-05-05T05:25:19.921Z,15.78
2023-05-05T05:26:19.876Z,15.75
2023-05-05T05:27:19.895Z,15.76
2023-05-05T05:28:19.878Z,15.78
2023-05-05T05:29:19.860Z,15.78
2023-05-05T05:30:19.807Z,15.87
2023-05-05T05:31:19.895Z,15.92
2023-05-05T05:32:19.881Z,15.92
2023-05-05T05:33:19.897Z,15.98
2023-05-05T05:34:19.805Z,16.03
2023-05-05T05:35:19.799Z,16.05
2023-05-05T05:36:19.937Z,16.16
2023-05-05T05:37:20.056Z,16.22
2023-05-05T05:38:19.774Z,16.29
2023-05-05T05:39:19.765Z,16.37
2023-05-05T05:40:19.728Z,16.41
2023-05-05T05:41:19.840Z,16.40
2023-05-05T05:42:19.747Z,16.47
2023-05-05T05:43:19.760Z,16.54
2023-05-05T05:44:19.715Z,16.51
2023-05-05T05:45:19.703Z,16.49
2023-05-05T05:46:19.747Z,16.50
2023-05-05T05:47:19.684Z,16.47
2023-05-05T05:48:19.666Z,16.43
2023-05-05T05:49:19.671Z,16.41
2023-05-05T05:50:19.602Z,16.43
2023-05-05T05:51:19.638Z,16.46
2023-05-05T05:52:19.609Z,16.43
2023-05-05T05:53:19.576Z,16.49
2023-05-05T05:54:20.116Z,16.54
2023-05-05T05:55:19.660Z,16.50
2023-05-05T05:56:19.492Z,16.55
2023-05-05T05:57:19.491Z,16.61
2023-05-05T05:58:19.488Z,16.69
2023-05-05T05:59:19.513Z,16.77
2023-05-05T06:00:19.479Z,16.79
2023-05-05T06:01:19.504Z,16.83
2023-05-05T06:02:19.532Z,16.86
2023-05-05T06:03:19.784Z,16.92
2023-05-05T06:04:19.452Z,16.98
2023-05-05T06:05:19.422Z,17.12
2023-05-05T06:06:19.427Z,17.20
2023-05-05T06:07:19.439Z,17.23
2023-05-05T06:08:19.398Z,17.27
2023-05-05T06:09:19.458Z,17.35
2023-05-05T06:10:28.106Z,17.46
2023-05-05T06:11:20.388Z,17.56
2023-05-05T06:12:19.464Z,17.78
2023-05-05T06:13:19.409Z,17.98
2023-05-05T06:14:20.125Z,18.16
2023-05-05T06:15:19.491Z,18.34
2023-05-05T06:16:19.365Z,18.49
2023-05-05T06:17:19.357Z,18.55
2023-05-05T06:18:19.387Z,18.66
2023-05-05T06:19:19.383Z,18.78
2023-05-05T06:20:19.308Z,18.98
2023-05-05T06:21:19.326Z,19.20
2023-05-05T06:22:19.245Z,19.32
2023-05-05T06:23:19.241Z,19.44
2023-05-05T06:24:19.261Z,19.52
2023-05-05T06:25:19.273Z,19.57
2023-05-05T06:26:19.252Z,19.71
2023-05-05T06:27:19.229Z,19.92
2023-05-05T06:28:19.234Z,20.07
2023-05-05T06:29:19.175Z,20.10
2023-05-05T06:30:19.173Z,20.19
2023-05-05T06:31:19.177Z,20.08
2023-05-05T06:32:19.130Z,20.18
2023-05-05T06:33:19.223Z,20.29
2023-05-05T06:34:19.127Z,20.55
2023-05-05T06:35:19.127Z,20.73
2023-05-05T06:36:19.176Z,20.80
2023-05-05T06:37:19.115Z,20.89
2023-05-05T06:38:19.106Z,20.89
2023-05-05T06:39:19.142Z,20.80
2023-05-05T06:40:19.102Z,20.80
2023-05-05T06:41:19.056Z,20.74
2023-05-05T06:42:19.057Z,20.83
2023-05-05T06:43:19.031Z,20.89
2023-05-05T06:44:19.004Z,20.86
2023-05-05T06:45:19.039Z,20.88
2023-05-05T06:46:19.052Z,20.83
2023-05-05T06:47:19.001Z,20.77
2023-05-05T06:48:18.973Z,20.80
2023-05-05T06:49:19.002Z,20.85
2023-05-05T06:50:18.952Z,20.93
2023-05-05T06:51:18.957Z,21.04
2023-05-05T06:52:18.963Z,21.07
2023-05-05T06:53:18.924Z,21.23
2023-05-05T06:54:18.906Z,21.43
2023-05-05T06:55:19.006Z,21.69
2023-05-05T06:56:18.882Z,21.96
2023-05-05T06:57:18.904Z,22.14
2023-05-05T06:58:18.843Z,22.28
2023-05-05T06:59:18.854Z,22.38
2023-05-05T07:00:18.870Z,22.41
2023-05-05T07:01:18.999Z,22.36
2023-05-05T07:02:18.780Z,22.40
2023-05-05T07:03:18.905Z,22.49
2023-05-05T07:04:18.985Z,22.58
2023-05-05T07:05:18.859Z,22.71
2023-05-05T07:06:18.764Z,22.83
2023-05-05T07:07:18.822Z,23.06
2023-05-05T07:08:18.756Z,23.21
2023-05-05T07:09:18.755Z,23.32
2023-05-05T07:10:18.768Z,23.36
2023-05-05T07:11:18.936Z,23.39
2023-05-05T07:12:18.749Z,23.42
2023-05-05T07:13:18.741Z,23.51
2023-05-05T07:14:18.814Z,23.47
2023-05-05T07:15:27.478Z,23.26
2023-05-05T07:16:19.694Z,23.17
2023-05-05T07:17:19.130Z,23.25
2023-05-05T07:18:18.660Z,23.55
2023-05-05T07:19:18.604Z,23.76
2023-05-05T07:20:18.616Z,23.84
2023-05-05T07:21:18.617Z,23.92
2023-05-05T07:22:18.741Z,24.06
2023-05-05T07:23:18.609Z,24.11
2023-05-05T07:24:18.661Z,23.95
2023-05-05T07:25:18.641Z,23.84
2023-05-05T07:26:18.592Z,23.91
2023-05-05T07:27:18.576Z,24.03
2023-05-05T07:28:18.522Z,24.07
2023-05-05T07:29:18.536Z,24.10
2023-05-05T07:30:19.366Z,24.14
2023-05-05T07:31:18.523Z,23.99
2023-05-05T07:32:18.554Z,23.77
2023-05-05T07:33:18.472Z,23.76
2023-05-05T07:34:18.561Z,23.92
2023-05-05T07:35:18.453Z,24.10
2023-05-05T07:36:18.461Z,24.24
2023-05-05T07:37:18.498Z,24.40
2023-05-05T07:38:18.461Z,24.43
2023-05-05T07:39:18.415Z,24.40
2023-05-05T07:40:18.442Z,24.40
2023-05-05T07:41:18.442Z,24.18
2023-05-05T07:42:18.421Z,24.07
2023-05-05T07:43:18.353Z,24.10
2023-05-05T07:44:18.378Z,24.19
2023-05-05T07:45:18.604Z,24.40
2023-05-05T07:46:18.365Z,24.31
2023-05-05T07:47:18.315Z,24.14
2023-05-05T07:48:18.349Z,24.07
2023-05-05T07:49:18.289Z,24.06
2023-05-05T07:50:18.313Z,23.94
2023-05-05T07:51:18.266Z,23.95
2023-05-05T07:52:18.256Z,24.01
2023-05-05T07:53:18.240Z,24.04
2023-05-05T07:54:18.224Z,24.26
2023-05-05T07:55:18.252Z,24.53
2023-05-05T07:56:19.295Z,24.79
2023-05-05T07:57:18.189Z,24.86
2023-05-05T07:58:18.214Z,24.74
2023-05-05T07:59:18.422Z,24.66
2023-05-05T08:00:18.252Z,24.68
2023-05-05T08:01:18.155Z,24.63
2023-05-05T08:02:18.185Z,24.68
2023-05-05T08:03:18.248Z,24.74
2023-05-05T08:04:18.179Z,24.74
2023-05-05T08:05:18.131Z,24.89
2023-05-05T08:06:18.113Z,24.94
2023-05-05T08:07:18.151Z,24.97
2023-05-05T08:08:18.106Z,24.94
2023-05-05T08:09:18.102Z,24.96
2023-05-05T08:10:18.197Z,25.04
2023-05-05T08:11:18.097Z,25.00
2023-05-05T08:12:18.116Z,24.99
2023-05-05T08:13:18.148Z,25.03
2023-05-05T08:14:18.101Z,25.15
2023-05-05T08:15:18.101Z,25.25
2023-05-05T08:16:18.119Z,25.41
2023-05-05T08:17:18.054Z,25.52
2023-05-05T08:18:18.045Z,25.30
2023-05-05T08:19:28.566Z,25.03
2023-05-05T08:20:19.065Z,25.03
2023-05-05T08:21:18.054Z,24.93
2023-05-05T08:22:18.006Z,24.96
2023-05-05T08:23:17.931Z,24.92
2023-05-05T08:24:17.940Z,24.84
2023-05-05T08:25:17.950Z,24.89
2023-05-05T08:26:17.964Z,25.01
2023-05-05T08:27:17.931Z,25.03
2023-05-05T08:28:17.964Z,24.92
2023-05-05T08:29:18.418Z,25.00
2023-05-05T08:30:17.888Z,25.25
2023-05-05T08:31:17.875Z,25.34
2023-05-05T08:32:17.842Z,25.40
2023-05-05T08:33:17.861Z,25.37
2023-05-05T08:34:17.875Z,25.40
2023-05-05T08:35:17.874Z,25.44
2023-05-05T08:36:17.878Z,25.88
2023-05-05T08:37:17.785Z,26.31
2023-05-05T08:38:17.790Z,26.51
2023-05-05T08:39:17.779Z,26.60
2023-05-05T08:40:17.785Z,26.76
2023-05-05T08:41:17.726Z,26.79
2023-05-05T08:42:32.840Z,26.79
2023-05-05T08:43:18.731Z,26.71
2023-05-05T08:44:17.780Z,26.89
2023-05-05T08:45:17.741Z,26.89
2023-05-05T08:46:17.794Z,26.82
2023-05-05T08:47:17.744Z,26.88
2023-05-05T08:48:17.715Z,26.93
2023-05-05T08:49:17.761Z,27.10
2023-05-05T08:50:17.691Z,27.16
2023-05-05T08:51:17.662Z,27.20
2023-05-05T08:52:17.692Z,27.13
2023-05-05T08:53:17.654Z,27.18
2023-05-05T08:54:17.609Z,27.20
2023-05-05T08:55:17.664Z,27.11
2023-05-05T08:56:17.797Z,26.91
2023-05-05T08:57:17.567Z,26.78
2023-05-05T08:58:17.614Z,26.83
2023-05-05T08:59:17.612Z,26.98
2023-05-05T09:00:17.549Z,27.07
2023-05-05T09:01:17.579Z,27.10
2023-05-05T09:02:17.669Z,26.88
2023-05-05T09:03:17.677Z,26.71
2023-05-05T09:04:17.561Z,26.56
2023-05-05T09:05:17.566Z,26.49
2023-05-05T09:06:18.350Z,26.49
2023-05-05T09:07:17.547Z,26.78
2023-05-05T09:08:17.495Z,26.89
2023-05-05T09:09:17.516Z,26.86
2023-05-05T09:10:17.573Z,27.08
2023-05-05T09:11:17.475Z,27.18
2023-05-05T09:12:17.501Z,27.15
2023-05-05T09:13:17.519Z,27.18
2023-05-05T09:14:17.441Z,27.16
2023-05-05T09:15:09.885Z,27.25
2023-05-05T09:16:09.653Z,26.89
2023-05-05T09:17:09.696Z,27.11
2023-05-05T09:18:09.715Z,27.01
2023-05-05T09:19:10.155Z,27.08
2023-05-05T09:20:09.655Z,27.16
2023-05-05T09:21:09.710Z,27.34
2023-05-05T09:22:09.677Z,27.35
2023-05-05T09:23:09.656Z,27.35
2023-05-05T09:24:09.855Z,27.53
2023-05-05T09:25:09.809Z,27.44
2023-05-05T09:26:09.623Z,27.88
2023-05-05T09:27:09.625Z,27.97
2023-05-05T09:28:09.528Z,28.16
2023-05-05T09:29:09.513Z,28.60
2023-05-05T09:30:09.503Z,28.13
2023-05-05T09:31:09.551Z,28.12
2023-05-05T09:32:10.095Z,28.43
2023-05-05T09:33:09.499Z,28.74
2023-05-05T09:34:10.502Z,28.94
2023-05-05T09:35:09.639Z,29.07
2023-05-05T09:36:09.569Z,29.28
2023-05-05T09:37:09.500Z,29.21
2023-05-05T09:38:09.502Z,29.21
2023-05-05T09:39:09.435Z,29.15
2023-05-05T09:40:09.430Z,29.06
2023-05-05T09:41:09.402Z,29.10
2023-05-05T09:42:09.413Z,29.35
2023-05-05T09:43:09.425Z,29.20
2023-05-05T09:44:09.387Z,29.18
2023-05-05T09:45:09.560Z,29.34
2023-05-05T09:46:09.431Z,29.30
2023-05-05T09:47:21.958Z,29.80
2023-05-05T09:48:10.357Z,29.86
2023-05-05T09:49:09.308Z,29.81
2023-05-05T09:50:09.525Z,29.68
2023-05-05T09:51:09.429Z,29.76
2023-05-05T09:52:09.282Z,29.98
2023-05-05T09:53:09.303Z,30.05
2023-05-05T09:54:09.285Z,30.06
2023-05-05T09:55:09.265Z,30.18
2023-05-05T09:56:09.246Z,30.39
2023-05-05T09:57:09.913Z,30.46
2023-05-05T09:58:09.274Z,30.38
2023-05-05T09:59:09.197Z,30.43
2023-05-05T10:00:09.350Z,30.08
2023-05-05T10:01:09.242Z,28.75
2023-05-05T10:02:09.205Z,28.52
2023-05-05T10:03:09.146Z,28.65
2023-05-05T10:04:09.235Z,28.90
2023-05-05T10:05:09.328Z,28.08
2023-05-05T10:06:09.196Z,28.64
2023-05-05T10:07:09.099Z,28.53
2023-05-05T10:08:09.110Z,27.43
2023-05-05T10:09:09.148Z,26.61
2023-05-05T10:10:09.438Z,27.15
2023-05-05T10:11:09.038Z,27.03
2023-05-05T10:12:09.077Z,26.34
2023-05-05T10:13:09.044Z,26.15
2023-05-05T10:14:09.068Z,25.98
2023-05-05T10:15:09.045Z,27.13
2023-05-05T10:16:09.116Z,27.93
2023-05-05T10:17:09.007Z,27.67
2023-05-05T10:18:09.018Z,27.19
2023-05-05T10:19:08.971Z,27.79
2023-05-05T10:20:09.147Z,27.07
2023-05-05T10:21:08.963Z,26.37
2023-05-05T10:22:08.956Z,25.91
2023-05-05T10:23:09.047Z,25.52
2023-05-05T10:24:08.972Z,25.14
2023-05-05T10:25:08.962Z,25.24
2023-05-05T10:26:08.935Z,25.14
2023-05-05T10:27:10.551Z,24.78
2023-05-05T10:28:08.897Z,24.78
2023-05-05T10:29:08.887Z,25.66
2023-05-05T10:30:09.123Z,26.89
2023-05-05T10:31:23.916Z,27.83
2023-05-05T10:32:33.566Z,28.50
2023-05-05T10:33:30.222Z,28.93
2023-05-05T10:34:10.396Z,28.94
2023-05-05T10:35:08.843Z,28.74
2023-05-05T10:36:08.841Z,27.53
2023-05-05T10:37:08.791Z,26.78
2023-05-05T10:38:08.952Z,26.30
2023-05-05T10:39:08.788Z,26.37
2023-05-05T10:40:09.051Z,26.16
2023-05-05T10:41:08.797Z,25.88
2023-05-05T10:42:08.823Z,25.80
2023-05-05T10:43:08.712Z,25.66
2023-05-05T10:44:08.716Z,25.56
2023-05-05T10:45:08.764Z,25.54
2023-05-05T10:46:08.793Z,25.59
2023-05-05T10:47:08.740Z,25.89
2023-05-05T10:48:08.795Z,25.89
2023-05-05T10:49:09.687Z,26.37
2023-05-05T10:50:08.962Z,26.52
2023-05-05T10:51:08.657Z,26.44
2023-05-05T10:52:08.628Z,25.92
2023-05-05T10:53:08.812Z,25.63
2023-05-05T10:54:08.682Z,25.49
2023-05-05T10:55:08.622Z,25.40
2023-05-05T10:56:08.684Z,25.25
2023-05-05T10:57:08.756Z,25.15
2023-05-05T10:58:08.608Z,25.61
2023-05-05T10:59:08.605Z,27.93
2023-05-05T11:00:08.978Z,29.15
2023-05-05T11:01:08.620Z,28.06
2023-05-05T11:02:08.635Z,27.73
2023-05-05T11:03:08.689Z,26.97
2023-05-05T11:04:08.573Z,26.37
2023-05-05T11:05:08.596Z,25.95
2023-05-05T11:06:08.551Z,25.44
2023-05-05T11:07:12.474Z,25.33
2023-05-05T11:08:09.509Z,25.30
2023-05-05T11:09:08.487Z,25.49
2023-05-05T11:10:08.866Z,25.88
2023-05-05T11:11:08.459Z,25.78
2023-05-05T11:12:08.442Z,26.07
2023-05-05T11:13:08.487Z,27.05
2023-05-05T11:14:08.411Z,28.30
2023-05-05T11:15:08.427Z,28.94
2023-05-05T11:16:08.421Z,29.20
2023-05-05T11:17:08.418Z,29.55
2023-05-05T11:18:08.871Z,29.83
2023-05-05T11:19:08.383Z,30.43
2023-05-05T11:20:08.651Z,30.63
2023-05-05T11:21:08.332Z,30.56
2023-05-05T11:22:08.307Z,30.18
2023-05-05T11:23:08.308Z,29.35
2023-05-05T11:24:08.308Z,28.59
2023-05-05T11:25:08.324Z,27.86
2023-05-05T11:26:08.325Z,27.15
2023-05-05T11:27:08.274Z,27.01
2023-05-05T11:28:08.343Z,26.89
2023-05-05T11:29:08.240Z,26.79
2023-05-05T11:30:08.486Z,26.71
2023-05-05T11:31:08.239Z,26.66
2023-05-05T11:32:08.210Z,26.51
2023-05-05T11:33:08.179Z,26.46
2023-05-05T11:34:08.247Z,26.52
2023-05-05T11:35:08.204Z,26.53
2023-05-05T11:36:08.195Z,26.71
2023-05-05T11:37:08.266Z,26.85
2023-05-05T11:38:08.181Z,26.67
2023-05-05T11:39:08.233Z,26.39
2023-05-05T11:40:08.278Z,26.27
2023-05-05T11:41:08.156Z,26.29
2023-05-05T11:42:10.833Z,26.56
2023-05-05T11:43:08.131Z,26.63
2023-05-05T11:44:08.123Z,26.78
2023-05-05T11:45:08.117Z,26.83
2023-05-05T11:46:08.171Z,26.89
2023-05-05T11:47:08.049Z,26.96
2023-05-05T11:48:08.168Z,26.98
2023-05-05T11:49:08.097Z,27.15
2023-05-05T11:50:08.348Z,27.37
2023-05-05T11:51:08.018Z,27.41
2023-05-05T11:52:07.996Z,27.13
2023-05-05T11:53:08.368Z,26.81
2023-05-05T11:54:08.011Z,26.78
2023-05-05T11:55:08.066Z,26.49
2023-05-05T11:56:07.942Z,26.39
2023-05-05T11:57:07.990Z,26.34
2023-05-05T11:58:07.976Z,26.49
2023-05-05T11:59:07.985Z,26.59
2023-05-05T12:00:08.330Z,26.70
2023-05-05T12:01:07.899Z,26.74
2023-05-05T12:02:07.952Z,26.78
2023-05-05T12:03:08.071Z,26.53
2023-05-05T12:04:08.004Z,26.26
2023-05-05T12:05:07.964Z,26.37
2023-05-05T12:06:07.868Z,26.49
2023-05-05T12:07:07.856Z,26.45
2023-05-05T12:08:07.804Z,26.41
2023-05-05T12:09:07.833Z,26.22
2023-05-05T12:10:08.094Z,25.81
2023-05-05T12:11:07.865Z,26.23
2023-05-05T12:12:07.820Z,26.29
2023-05-05T12:13:08.410Z,26.53
2023-05-05T12:14:07.852Z,26.55
2023-05-05T12:15:07.868Z,26.64
2023-05-05T12:16:08.172Z,26.71
2023-05-05T12:17:07.782Z,26.82
2023-05-05T12:18:07.810Z,27.00
2023-05-05T12:19:07.740Z,27.23
2023-05-05T12:20:08.012Z,27.15
2023-05-05T12:21:07.758Z,27.07
2023-05-05T12:22:07.671Z,26.89
2023-05-05T12:23:07.689Z,26.89
2023-05-05T12:24:07.708Z,26.76
2023-05-05T12:25:07.720Z,26.48
2023-05-05T12:26:07.647Z,26.34
2023-05-05T12:27:07.645Z,26.24
2023-05-05T12:28:07.655Z,26.16
2023-05-05T12:29:07.647Z,25.99
2023-05-05T12:30:07.737Z,25.77
2023-05-05T12:31:07.682Z,25.68
2023-05-05T12:32:07.707Z,25.43
2023-05-05T12:33:07.575Z,25.41
2023-05-05T12:34:07.565Z,25.36
2023-05-05T12:35:07.582Z,25.21
2023-05-05T12:36:07.572Z,24.93
2023-05-05T12:37:07.523Z,24.96
2023-05-05T12:38:07.538Z,25.00
2023-05-05T12:39:07.739Z,24.99
2023-05-05T12:40:07.684Z,24.92
2023-05-05T12:41:07.541Z,24.85
2023-05-05T12:42:07.470Z,24.78
2023-05-05T12:43:07.434Z,24.75
2023-05-05T12:44:07.503Z,24.65
2023-05-05T12:45:07.433Z,24.62
2023-05-05T12:46:07.751Z,24.58
2023-05-05T12:47:07.452Z,24.51
2023-05-05T12:48:07.500Z,24.41
2023-05-05T12:49:07.494Z,24.38
2023-05-05T12:50:07.736Z,24.28
2023-05-05T12:51:07.406Z,24.11
2023-05-05T12:52:07.388Z,24.09